createdAt,value
2016-09-04T00:04:07.989Z,22.25
2016-09-04T00:09:04.553Z,22.28
2016-09-04T00:14:01.154Z,22.25
2016-09-04T00:18:57.664Z,22.18
2016-09-04T00:23:54.332Z,22.17
2016-09-04T00:28:51.438Z,22.15
2016-09-04T00:33:48.147Z,22.17
2016-09-04T00:38:44.744Z,22.22
2016-09-04T00:43:41.513Z,22.28
2016-09-04T00:48:40.735Z,22.25
2016-09-04T00:53:36.650Z,22.29
2016-09-04T00:58:33.156Z,22.33
2016-09-04T01:03:32.553Z,22.26
2016-09-04T01:08:28.765Z,22.18
2016-09-04T01:13:25.418Z,22.25
2016-09-04T01:18:22.010Z,22.26
2016-09-04T01:23:18.583Z,22.29
2016-09-04T01:28:15.267Z,22.25
2016-09-04T01:33:11.815Z,22.17
2016-09-04T01:38:08.441Z,22.17
2016-09-04T01:43:06.144Z,22.28
2016-09-04T01:48:02.524Z,22.25
2016-09-04T01:52:58.921Z,22.28
2016-09-04T01:57:55.529Z,22.11
2016-09-04T02:02:51.970Z,22.17
2016-09-04T02:07:48.592Z,22.11
2016-09-04T02:12:45.132Z,22.20
2016-09-04T02:17:41.855Z,22.18
2016-09-04T02:22:39.593Z,22.20
2016-09-04T02:27:35.698Z,22.18
2016-09-04T02:32:32.188Z,22.10
2016-09-04T02:37:28.927Z,22.13
2016-09-04T02:42:25.352Z,22.08
2016-09-04T02:47:21.930Z,22.04
2016-09-04T02:52:18.562Z,22.04
2016-09-04T02:57:15.301Z,21.89
2016-09-04T03:02:11.916Z,21.85
2016-09-04T03:07:08.594Z,21.93
2016-09-04T03:12:05.614Z,21.85
2016-09-04T03:17:02.294Z,21.89
2016-09-04T03:21:58.832Z,21.76
2016-09-04T03:26:55.780Z,21.77
2016-09-04T03:31:52.187Z,21.70
2016-09-04T03:36:51.766Z,21.80
2016-09-04T03:41:47.883Z,21.76
2016-09-04T03:46:44.525Z,21.82
2016-09-04T03:51:41.121Z,21.80
2016-09-04T03:56:37.755Z,21.87
2016-09-04T04:01:34.354Z,21.64
2016-09-04T04:06:31.668Z,21.69
2016-09-04T04:11:28.437Z,21.64
2016-09-04T04:16:25.045Z,21.64
2016-09-04T04:21:21.547Z,21.70
2016-09-04T04:26:18.111Z,21.54
2016-09-04T04:31:14.762Z,21.67
2016-09-04T04:36:11.428Z,21.61
2016-09-04T04:41:07.901Z,21.62
2016-09-04T04:46:06.761Z,21.60
2016-09-04T04:51:02.651Z,21.66
2016-09-04T04:55:59.219Z,21.77
2016-09-04T05:00:55.825Z,21.64
2016-09-04T05:05:52.509Z,21.67
2016-09-04T05:10:49.121Z,21.62
2016-09-04T05:15:45.769Z,21.67
2016-09-04T05:20:42.316Z,21.61
2016-09-04T05:25:39.120Z,21.67
2016-09-04T05:30:35.644Z,21.72
2016-09-04T05:35:32.260Z,21.67
2016-09-04T05:40:28.998Z,21.73
2016-09-04T05:45:25.656Z,21.72
2016-09-04T05:50:22.323Z,21.75
2016-09-04T05:55:19.275Z,21.69
2016-09-04T06:00:15.854Z,21.76
2016-09-04T06:05:12.460Z,21.77
2016-09-04T06:10:08.928Z,21.75
2016-09-04T06:15:05.890Z,21.62
2016-09-04T06:20:02.509Z,21.67
2016-09-04T06:24:59.219Z,21.64
2016-09-04T06:29:55.775Z,21.64
2016-09-04T06:34:52.328Z,21.61
2016-09-04T06:39:48.871Z,21.61
2016-09-04T06:44:45.412Z,21.76
2016-09-04T06:49:42.046Z,21.62
2016-09-04T06:54:39.097Z,21.64
2016-09-04T06:59:35.723Z,21.76
2016-09-04T07:04:32.540Z,21.72
2016-09-04T07:09:29.504Z,21.67
2016-09-04T07:14:28.690Z,21.64
2016-09-04T07:19:24.653Z,21.66
2016-09-04T07:24:21.679Z,21.75
2016-09-04T07:29:18.805Z,21.72
2016-09-04T07:34:15.318Z,21.75
2016-09-04T07:39:12.049Z,21.80
2016-09-04T07:44:08.810Z,21.75
2016-09-04T07:49:05.507Z,21.79
2016-09-04T07:54:04.309Z,21.76
2016-09-04T07:59:00.648Z,21.82
2016-09-04T08:03:57.419Z,22.15
2016-09-04T08:08:54.194Z,22.13
2016-09-04T08:13:50.643Z,22.17
2016-09-04T08:18:47.438Z,22.15
2016-09-04T08:23:44.088Z,22.18
2016-09-04T08:28:40.732Z,22.26
2016-09-04T08:33:37.800Z,22.18
2016-09-04T08:38:34.669Z,22.20
2016-09-04T08:43:31.351Z,22.29
2016-09-04T08:48:28.169Z,22.55
2016-09-04T08:53:25.697Z,22.98
2016-09-04T08:58:22.387Z,23.13
2016-09-04T09:03:19.106Z,23.34
2016-09-04T09:08:16.016Z,23.55
2016-09-04T09:13:12.921Z,23.46
2016-09-04T09:18:09.483Z,23.41
2016-09-04T09:23:05.977Z,23.27
2016-09-04T09:28:02.652Z,23.31
2016-09-04T09:32:59.309Z,23.21
2016-09-04T09:37:56.756Z,23.02
2016-09-04T09:42:53.142Z,22.80
2016-09-04T09:47:49.815Z,22.70
2016-09-04T09:52:46.407Z,22.73
2016-09-04T09:57:43.079Z,22.88
2016-09-04T10:02:40.886Z,22.90
2016-09-04T10:07:37.228Z,23.18
2016-09-04T10:12:33.914Z,23.39
2016-09-04T10:17:30.531Z,23.63
2016-09-04T10:22:33.601Z,23.48
2016-09-04T10:27:29.372Z,23.59
2016-09-04T10:32:26.121Z,23.88
2016-09-04T10:37:23.160Z,24.11
2016-09-04T10:42:19.857Z,24.47
2016-09-04T10:47:17.033Z,24.68
2016-09-04T10:52:13.433Z,24.28
2016-09-04T10:57:10.086Z,23.92
2016-09-04T11:02:06.865Z,23.96
2016-09-04T11:07:03.695Z,23.58
2016-09-04T11:12:00.448Z,23.55
2016-09-04T11:16:57.029Z,23.32
2016-09-04T11:21:53.693Z,23.21
2016-09-04T11:26:50.248Z,23.12
2016-09-04T11:31:46.712Z,23.06
2016-09-04T11:36:45.786Z,23.21
2016-09-04T11:41:41.692Z,23.23
2016-09-04T11:46:40.549Z,23.32
2016-09-04T11:51:36.993Z,23.21
2016-09-04T11:56:33.519Z,23.06
2016-09-04T12:01:31.569Z,23.03
2016-09-04T12:06:27.921Z,23.21
2016-09-04T12:11:24.715Z,23.32
2016-09-04T12:16:21.410Z,23.39
2016-09-04T12:21:18.130Z,23.51
2016-09-04T12:26:15.764Z,23.46
2016-09-04T12:31:12.112Z,23.56
2016-09-04T12:36:08.740Z,23.50
2016-09-04T12:41:05.348Z,23.48
2016-09-04T12:46:01.998Z,23.51
2016-09-04T12:50:58.669Z,23.56
2016-09-04T12:55:56.823Z,23.63
2016-09-04T13:00:53.239Z,23.51
2016-09-04T13:05:49.881Z,23.62
2016-09-04T13:10:46.590Z,23.61
2016-09-04T13:15:43.211Z,23.48
2016-09-04T13:20:39.857Z,23.43
2016-09-04T13:25:36.421Z,23.48
2016-09-04T13:30:33.085Z,23.58
2016-09-04T13:35:30.027Z,23.66
2016-09-04T13:40:26.832Z,23.68
2016-09-04T13:45:23.376Z,23.81
2016-09-04T13:50:20.298Z,23.88
2016-09-04T13:55:18.154Z,23.91
2016-09-04T14:00:14.427Z,23.87
2016-09-04T14:05:11.063Z,23.83
2016-09-04T14:10:07.869Z,23.76
2016-09-04T14:15:06.081Z,23.71
2016-09-04T14:20:02.687Z,23.66
2016-09-04T14:24:59.410Z,23.58
2016-09-04T14:29:56.419Z,23.50
2016-09-04T14:34:52.886Z,23.56
2016-09-04T14:39:50.162Z,23.63
2016-09-04T14:44:47.009Z,23.65
2016-09-04T14:49:44.254Z,23.80
2016-09-04T14:54:42.421Z,24.06
2016-09-04T14:59:38.969Z,24.11
2016-09-04T15:04:38.180Z,24.10
2016-09-04T15:09:34.259Z,23.96
2016-09-04T15:14:30.759Z,24.05
2016-09-04T15:19:28.851Z,24.06
2016-09-04T15:24:25.204Z,24.10
2016-09-04T15:29:21.801Z,24.14
2016-09-04T15:34:18.611Z,24.13
2016-09-04T15:39:15.334Z,24.16
2016-09-04T15:44:11.814Z,24.18
2016-09-04T15:49:08.306Z,24.11
2016-09-04T15:54:04.961Z,24.23
2016-09-04T15:59:01.889Z,24.24
2016-09-04T16:04:01.355Z,24.23
2016-09-04T16:08:57.280Z,24.36
2016-09-04T16:13:53.706Z,24.26
2016-09-04T16:18:50.275Z,24.23
2016-09-04T16:23:47.005Z,24.38
2016-09-04T16:28:43.876Z,24.55
2016-09-04T16:33:41.461Z,24.57
2016-09-04T16:38:38.004Z,24.48
2016-09-04T16:43:37.931Z,24.57
2016-09-04T16:48:33.763Z,24.36
2016-09-04T16:53:31.722Z,24.23
2016-09-04T16:58:28.121Z,24.14
2016-09-04T17:03:25.139Z,23.93
2016-09-04T17:08:21.732Z,24.02
2016-09-04T17:13:18.229Z,23.95
2016-09-04T17:18:14.830Z,23.96
2016-09-04T17:23:11.902Z,23.76
2016-09-04T17:28:08.397Z,23.47
2016-09-04T17:33:05.012Z,23.24
2016-09-04T17:38:01.877Z,22.88
2016-09-04T17:43:01.189Z,22.76
2016-09-04T17:47:57.272Z,22.62
2016-09-04T17:52:53.792Z,22.43
2016-09-04T17:57:50.412Z,22.43
2016-09-04T18:02:47.484Z,22.44
2016-09-04T18:07:44.719Z,22.18
2016-09-04T18:12:41.921Z,22.11
2016-09-04T18:17:39.075Z,22.10
2016-09-04T18:22:35.998Z,21.91
2016-09-04T18:27:32.955Z,21.92
2016-09-04T18:32:29.854Z,21.83
2016-09-04T18:37:26.784Z,21.85
2016-09-04T18:42:23.938Z,21.77
2016-09-04T18:47:20.893Z,21.70
2016-09-04T18:52:17.755Z,21.66
2016-09-04T18:57:14.745Z,21.77
2016-09-04T19:02:11.956Z,21.70
2016-09-04T19:07:08.520Z,21.82
2016-09-04T19:12:05.628Z,21.67
2016-09-04T19:17:02.705Z,21.72
2016-09-04T19:21:59.342Z,21.62
2016-09-04T19:26:58.991Z,21.60
2016-09-04T19:31:54.999Z,21.60
2016-09-04T19:36:53.211Z,21.66
2016-09-04T19:41:49.491Z,21.80
2016-09-04T19:46:47.441Z,22.10
2016-09-04T19:51:44.150Z,22.00
2016-09-04T19:56:40.928Z,21.80
2016-09-04T20:01:40.206Z,21.93
2016-09-04T20:06:36.483Z,21.87
2016-09-04T20:11:33.119Z,21.82
2016-09-04T20:16:32.476Z,21.80
2016-09-04T20:21:28.969Z,21.70
2016-09-04T20:26:25.514Z,21.55
2016-09-04T20:31:22.602Z,21.45
2016-09-04T20:36:19.168Z,21.33
2016-09-04T20:41:17.510Z,21.45
2016-09-04T20:46:14.136Z,21.58
2016-09-04T20:51:11.018Z,21.66
2016-09-04T20:56:07.596Z,21.67
2016-09-04T21:01:04.568Z,21.62
2016-09-04T21:06:01.570Z,21.64
2016-09-04T21:10:58.423Z,21.58
2016-09-04T21:15:55.278Z,21.51
2016-09-04T21:20:51.850Z,21.40
2016-09-04T21:25:48.435Z,21.39
2016-09-04T21:30:44.988Z,21.40
2016-09-04T21:35:41.537Z,21.51
2016-09-04T21:40:40.478Z,21.25
2016-09-04T21:45:36.369Z,21.25
2016-09-04T21:50:32.957Z,21.22
2016-09-04T21:55:29.628Z,21.27
2016-09-04T22:00:26.292Z,21.27
2016-09-04T22:05:22.452Z,21.14
2016-09-04T22:10:19.256Z,21.22
2016-09-04T22:15:16.495Z,21.25
2016-09-04T22:20:13.101Z,21.06
2016-09-04T22:25:09.717Z,21.00
2016-09-04T22:30:06.494Z,21.03
2016-09-04T22:35:03.018Z,21.03
2016-09-04T22:40:00.378Z,21.03
2016-09-04T22:44:57.094Z,20.97
2016-09-04T22:49:53.610Z,21.06
2016-09-04T22:54:50.225Z,21.02
2016-09-04T22:59:46.943Z,21.05
2016-09-04T23:04:43.544Z,21.00
2016-09-04T23:09:40.601Z,20.97
2016-09-04T23:14:36.870Z,20.82
2016-09-04T23:19:33.220Z,20.87
2016-09-04T23:24:29.615Z,20.93
2016-09-04T23:29:26.483Z,20.88
2016-09-04T23:34:25.680Z,21.03
2016-09-04T23:39:22.360Z,21.00
2016-09-04T23:44:19.224Z,21.02
2016-09-04T23:49:15.880Z,20.84
2016-09-04T23:54:12.379Z,20.81
2016-09-04T23:59:09.188Z,20.70
